Kimballton, Virginia
Current Conditions -  °F | °C
As of 7:15 AM on Tuesday 27 Jan 2015 (Local Time) from KPSK Reporting Station
Clear Clear  
Wind Chill: 13°   Ceiling: Unl
Heat Index: 23°   Visibility: 10mi
Dew Point: 15°   Wind: 8mph
Humidity: 71%   Direction: 310°NW
Pressure: 29.8"   Gusts: NA
Location:  37.3528°N, 80.6692°W
Report Text: KPSK 271215Z AUTO 31007KT 10SM CLR M05/M10 A2980 RMK AO2 T10521097
Loading
Personal Weather Stations






























Interactive Weather Map New forecast layout! Learn more

10-Day Weather Forecast

Advertisements
Track Severe Weather on mobile